Time;durP1;ratioP1;P1;durP2;ratioP2;P2;SDS_P1;SDS_P2;PMS_P1;PMS_P2;Temp;Humidity;BMP_temperature;BMP_pressure;BME280_temperature;BME280_humidity;BME280_pressure;Samples;Min_cycle;Max_cycle;Signal;HPM_P1;HPM_P2
2022/09/13 00:00:24;;;;;;;16.42;10.52;;;12.70;99.90;;;;;;5037217;28;20225;-87
2022/09/13 00:03:14;;;;;;;15.35;10.32;;;12.70;99.90;;;;;;5036275;28;20287;-88
2022/09/13 00:06:12;;;;;;;16.10;11.00;;;12.80;99.90;;;;;;5046905;28;20205;-88
2022/09/13 00:09:01;;;;;;;12.40;9.73;;;12.70;99.90;;;;;;5065320;28;20295;-85
2022/09/13 00:11:51;;;;;;;13.40;10.35;;;12.70;99.90;;;;;;5039440;28;20214;-85
2022/09/13 00:14:40;;;;;;;13.75;9.95;;;12.70;99.90;;;;;;5037992;28;20232;-86
2022/09/13 00:17:28;;;;;;;13.50;10.15;;;12.70;99.90;;;;;;5035570;28;20247;-85
2022/09/13 00:20:17;;;;;;;15.30;9.95;;;12.60;99.90;;;;;;5038093;28;20236;-86
2022/09/13 00:23:07;;;;;;;14.32;10.00;;;12.60;99.90;;;;;;5038428;28;20354;-85
2022/09/13 00:26:04;;;;;;;13.52;10.15;;;12.60;99.90;;;;;;5053006;28;22072;-86
2022/09/13 00:28:54;;;;;;;13.40;10.35;;;12.60;99.90;;;;;;5037840;28;20224;-84
2022/09/13 00:31:43;;;;;;;12.90;10.48;;;12.60;99.90;;;;;;5038120;28;20220;-87
2022/09/13 00:34:32;;;;;;;13.93;10.60;;;12.50;99.90;;;;;;5040256;28;20299;-86
2022/09/13 00:37:20;;;;;;;13.98;10.18;;;12.50;99.90;;;;;;5029379;28;20265;-87
2022/09/13 00:40:11;;;;;;;14.50;10.45;;;12.50;99.90;;;;;;5041052;28;20281;-88
2022/09/13 00:43:00;;;;;;;13.18;11.13;;;12.50;99.90;;;;;;5056713;28;20308;-86
2022/09/13 00:45:49;;;;;;;13.27;10.98;;;12.50;99.90;;;;;;5045185;28;20601;-87
2022/09/13 00:48:38;;;;;;;12.73;10.27;;;12.40;99.90;;;;;;5056678;28;20245;-83
2022/09/13 00:51:28;;;;;;;18.42;10.82;;;12.40;99.90;;;;;;5060959;28;20244;-86
2022/09/13 00:54:20;;;;;;;13.05;10.77;;;12.30;99.90;;;;;;5042742;28;20222;-86
2022/09/13 00:57:14;;;;;;;13.02;10.40;;;12.30;99.90;;;;;;5040348;28;20331;-88
2022/09/13 01:00:09;;;;;;;12.80;10.60;;;12.20;99.90;;;;;;5043725;28;20718;-88
2022/09/13 01:03:02;;;;;;;16.40;11.10;;;12.30;99.90;;;;;;5050904;28;20250;-92
2022/09/13 01:05:56;;;;;;;15.20;11.35;;;12.30;99.90;;;;;;5045085;28;20220;-92
2022/09/13 01:08:49;;;;;;;17.85;11.82;;;12.30;99.90;;;;;;5040385;28;20226;-87
2022/09/13 01:11:46;;;;;;;14.00;11.35;;;12.30;99.90;;;;;;5040430;28;20228;-87
2022/09/13 01:14:36;;;;;;;15.98;11.65;;;12.20;99.90;;;;;;5058036;28;20688;-87
2022/09/13 01:17:26;;;;;;;18.70;12.43;;;12.20;99.90;;;;;;5042048;28;20251;-87
2022/09/13 01:20:15;;;;;;;14.40;12.18;;;12.20;99.90;;;;;;5038161;28;20218;-86
2022/09/13 01:23:37;;;;;;;15.75;12.55;;;12.20;99.90;;;;;;5044250;28;20225;-87
2022/09/13 01:26:52;;;;;;;17.10;12.40;;;12.10;99.90;;;;;;5042465;28;20220;-86
2022/09/13 01:30:14;;;;;;;14.90;11.38;;;12.10;99.90;;;;;;5056293;28;20217;-85
2022/09/13 01:33:33;;;;;;;15.52;12.52;;;12.10;99.90;;;;;;5038351;28;20644;-85
2022/09/13 01:36:54;;;;;;;13.60;11.68;;;12.10;99.90;;;;;;5044330;28;20763;-84
2022/09/13 01:39:59;;;;;;;14.13;12.05;;;12.10;99.90;;;;;;5042452;28;20221;-84
2022/09/13 01:43:11;;;;;;;15.60;12.48;;;11.90;99.90;;;;;;5038425;28;20229;-86
2022/09/13 01:46:05;;;;;;;14.10;11.93;;;11.90;99.90;;;;;;5039584;28;20233;-83
2022/09/13 01:49:01;;;;;;;16.52;12.55;;;12.00;99.90;;;;;;5037756;28;20221;-85
2022/09/13 01:51:59;;;;;;;15.68;12.60;;;11.90;99.90;;;;;;5055037;28;20296;-86
2022/09/13 01:54:55;;;;;;;17.58;12.65;;;11.90;99.90;;;;;;5051138;28;20218;-86
2022/09/13 01:57:51;;;;;;;17.00;12.55;;;11.80;99.90;;;;;;5040377;28;20216;-85
2022/09/13 02:00:46;;;;;;;16.98;12.75;;;11.80;99.90;;;;;;5042597;28;20287;-85
2022/09/13 02:03:39;;;;;;;16.48;12.77;;;11.80;99.90;;;;;;5042235;28;20285;-85
2022/09/13 02:06:33;;;;;;;13.57;11.82;;;11.90;99.90;;;;;;5044450;28;20217;-85
2022/09/13 02:09:25;;;;;;;16.75;13.10;;;11.80;99.90;;;;;;5043034;28;20295;-87
2022/09/13 02:12:18;;;;;;;18.02;13.18;;;11.80;99.90;;;;;;5050887;28;20225;-86
2022/09/13 02:15:13;;;;;;;17.50;14.10;;;11.80;99.90;;;;;;5041885;28;20226;-86
2022/09/13 02:18:08;;;;;;;19.05;13.43;;;11.80;99.90;;;;;;5033611;28;20223;-87
2022/09/13 02:21:06;;;;;;;17.83;14.40;;;11.80;99.90;;;;;;5040867;28;20226;-86
2022/09/13 02:24:02;;;;;;;15.75;13.38;;;11.80;99.90;;;;;;5041659;28;20220;-86
2022/09/13 02:26:54;;;;;;;16.30;13.23;;;11.70;99.90;;;;;;5038948;28;20231;-86
2022/09/13 02:29:47;;;;;;;17.90;14.02;;;11.70;99.90;;;;;;5041761;28;20225;-86
2022/09/13 02:32:40;;;;;;;16.92;14.18;;;11.70;99.90;;;;;;5055891;28;20233;-90
2022/09/13 02:35:33;;;;;;;18.10;13.75;;;11.70;99.90;;;;;;5050912;28;20228;-85
2022/09/13 02:38:26;;;;;;;16.73;14.25;;;11.70;99.90;;;;;;5055498;28;20221;-90
2022/09/13 02:41:26;;;;;;;17.13;14.52;;;11.70;99.90;;;;;;5041911;28;20215;-90
2022/09/13 02:44:22;;;;;;;19.45;14.35;;;11.60;99.90;;;;;;5045682;28;20694;-90
2022/09/13 02:47:20;;;;;;;17.75;14.23;;;11.60;99.90;;;;;;5047243;28;20315;-90
2022/09/13 02:50:28;;;;;;;16.10;13.45;;;11.60;99.90;;;;;;5045835;28;20242;-88
2022/09/13 02:53:25;;;;;;;17.00;13.35;;;11.60;99.90;;;;;;5045145;28;20233;-89
2022/09/13 02:56:24;;;;;;;17.63;14.43;;;11.50;99.90;;;;;;5045352;28;20221;-86
2022/09/13 02:59:16;;;;;;;15.50;13.50;;;11.50;99.90;;;;;;5055173;28;20929;-89
2022/09/13 03:02:08;;;;;;;18.33;13.55;;;11.50;99.90;;;;;;5039377;28;20221;-88
2022/09/13 03:04:58;;;;;;;18.08;14.32;;;11.50;99.90;;;;;;5047486;28;20247;-88
2022/09/13 03:07:50;;;;;;;16.50;13.55;;;11.50;99.90;;;;;;5056375;28;20279;-88
2022/09/13 03:10:48;;;;;;;19.20;14.10;;;11.50;99.90;;;;;;5058387;28;20221;-87
2022/09/13 03:14:16;;;;;;;18.95;13.85;;;11.50;99.90;;;;;;5035253;28;20335;-85
2022/09/13 03:17:35;;;;;;;15.75;13.35;;;11.40;99.90;;;;;;5051824;28;20264;-85
2022/09/13 03:20:35;;;;;;;16.00;13.15;;;11.40;99.90;;;;;;5039547;28;20233;-85
2022/09/13 03:23:46;;;;;;;16.63;13.18;;;11.40;99.90;;;;;;5039822;28;20225;-86
2022/09/13 03:26:46;;;;;;;14.50;12.25;;;11.40;99.90;;;;;;5031805;28;20221;-86
2022/09/13 03:29:41;;;;;;;15.43;12.25;;;11.30;99.90;;;;;;5039891;28;20229;-84
2022/09/13 03:32:36;;;;;;;15.05;12.20;;;11.30;99.90;;;;;;5035704;28;20237;-85
2022/09/13 03:35:32;;;;;;;14.63;12.15;;;11.30;99.90;;;;;;5027788;28;20248;-86
2022/09/13 03:38:27;;;;;;;14.98;12.00;;;11.30;99.90;;;;;;5046775;28;20220;-85
2022/09/13 03:41:19;;;;;;;14.48;11.82;;;11.30;99.90;;;;;;5046728;28;20613;-86
2022/09/13 03:44:12;;;;;;;16.92;12.38;;;11.20;99.90;;;;;;5045144;28;21983;-86
2022/09/13 03:47:05;;;;;;;14.30;12.48;;;11.20;99.90;;;;;;5046829;28;20224;-86
2022/09/13 03:49:56;;;;;;;15.73;12.07;;;11.20;99.90;;;;;;5024975;28;20252;-87
2022/09/13 03:52:46;;;;;;;16.85;12.00;;;11.20;99.90;;;;;;5033124;28;20219;-89
2022/09/13 03:55:38;;;;;;;13.98;11.18;;;11.20;99.90;;;;;;5041694;28;20229;-89
2022/09/13 03:58:27;;;;;;;15.93;11.73;;;11.20;99.90;;;;;;5025399;28;20225;-89
2022/09/13 04:01:20;;;;;;;13.60;10.90;;;11.10;99.90;;;;;;5034580;28;20255;-88
2022/09/13 04:04:10;;;;;;;16.00;11.57;;;11.10;99.90;;;;;;5018814;28;20225;-85
2022/09/13 04:07:02;;;;;;;19.20;11.23;;;11.00;99.90;;;;;;5039479;28;20231;-84
2022/09/13 04:09:51;;;;;;;15.50;11.32;;;11.00;99.90;;;;;;5042949;28;20235;-84
2022/09/13 04:12:40;;;;;;;13.48;11.38;;;11.00;99.90;;;;;;5032678;28;20224;-84
2022/09/13 04:15:30;;;;;;;16.52;11.68;;;11.00;99.90;;;;;;5036735;28;20229;-87
2022/09/13 04:18:19;;;;;;;16.83;12.07;;;11.00;99.90;;;;;;5038596;28;20216;-88
2022/09/13 04:21:10;;;;;;;16.92;12.88;;;11.00;99.90;;;;;;5035145;28;20217;-88
2022/09/13 04:23:58;;;;;;;15.38;12.52;;;11.10;99.90;;;;;;5049501;28;20232;-87
2022/09/13 04:26:50;;;;;;;20.30;13.70;;;11.10;99.90;;;;;;5031006;28;20221;-88
2022/09/13 04:29:39;;;;;;;15.70;12.73;;;11.00;99.90;;;;;;5041455;28;20316;-87
2022/09/13 04:32:28;;;;;;;18.85;12.35;;;11.00;99.90;;;;;;5036587;28;20581;-86
2022/09/13 04:35:18;;;;;;;16.52;12.52;;;11.10;99.90;;;;;;5026821;28;20244;-88
2022/09/13 04:38:09;;;;;;;17.30;12.55;;;11.10;99.90;;;;;;5020244;28;20218;-87
2022/09/13 04:40:57;;;;;;;15.07;11.77;;;11.10;99.90;;;;;;5023775;28;20220;-86
2022/09/13 04:43:49;;;;;;;17.63;11.98;;;11.20;99.90;;;;;;5042723;28;20727;-94
2022/09/13 04:46:38;;;;;;;13.25;11.75;;;11.10;99.90;;;;;;5052378;28;20712;-96
2022/09/13 04:49:27;;;;;;;19.13;12.32;;;11.30;99.90;;;;;;5037352;28;20238;-96
2022/09/13 04:52:16;;;;;;;17.35;11.73;;;11.30;99.90;;;;;;5051720;28;20213;-93
2022/09/13 04:55:06;;;;;;;17.35;12.15;;;11.40;99.90;;;;;;5044663;28;20235;-95
2022/09/13 04:57:56;;;;;;;15.02;12.02;;;11.40;99.90;;;;;;5045950;28;20623;-95
2022/09/13 05:00:44;;;;;;;16.98;12.75;;;11.40;99.90;;;;;;5050308;28;20214;-96
2022/09/13 05:03:35;;;;;;;14.95;11.35;;;11.40;99.90;;;;;;5039974;28;20229;-96
2022/09/13 05:06:24;;;;;;;16.27;12.15;;;11.50;99.90;;;;;;5045898;28;20233;-95
2022/09/13 05:09:14;;;;;;;17.75;11.48;;;11.50;99.90;;;;;;5041375;28;20222;-96
2022/09/13 05:12:06;;;;;;;17.90;11.20;;;11.60;99.90;;;;;;5043217;28;20227;-91
2022/09/13 05:14:54;;;;;;;18.92;12.65;;;11.50;99.90;;;;;;5040823;28;20220;-90
2022/09/13 05:17:44;;;;;;;15.95;11.82;;;11.40;99.90;;;;;;5047959;28;20588;-86
2022/09/13 05:20:33;;;;;;;16.77;11.13;;;11.50;99.90;;;;;;5049296;28;20252;-88
2022/09/13 05:23:22;;;;;;;15.00;11.30;;;11.50;99.90;;;;;;5064750;28;20216;-88
2022/09/13 05:26:11;;;;;;;17.20;12.05;;;11.60;99.90;;;;;;5054270;28;20225;-85
2022/09/13 05:29:01;;;;;;;15.93;11.90;;;11.60;99.90;;;;;;5052515;28;20233;-88
2022/09/13 05:31:50;;;;;;;16.55;12.75;;;11.70;99.90;;;;;;5049739;28;20225;-89
2022/09/13 05:34:38;;;;;;;18.98;13.15;;;11.80;99.90;;;;;;5046045;28;20225;-88
2022/09/13 05:37:27;;;;;;;14.52;11.52;;;11.90;99.90;;;;;;5038888;28;20232;-91
2022/09/13 05:40:16;;;;;;;15.57;12.25;;;12.00;99.90;;;;;;5041574;28;20296;-86
2022/09/13 05:43:04;;;;;;;16.98;12.43;;;12.00;99.90;;;;;;5059666;28;20221;-84
2022/09/13 05:46:02;;;;;;;18.48;13.18;;;12.20;99.90;;;;;;5024594;28;20315;-83
2022/09/13 05:48:51;;;;;;;14.25;12.55;;;12.20;99.90;;;;;;5022949;28;20363;-84
2022/09/13 05:51:40;;;;;;;19.70;13.98;;;12.20;99.90;;;;;;5037184;28;20217;-83
2022/09/13 05:54:29;;;;;;;20.13;15.38;;;12.30;99.90;;;;;;5041196;28;20332;-88
2022/09/13 05:57:17;;;;;;;17.13;14.27;;;12.30;99.90;;;;;;5020208;28;20240;-88
2022/09/13 06:00:07;;;;;;;15.98;14.00;;;12.40;99.90;;;;;;5040223;28;20221;-85
2022/09/13 06:03:00;;;;;;;21.92;14.43;;;12.50;99.90;;;;;;5046578;28;20241;-87
2022/09/13 06:05:50;;;;;;;17.10;14.48;;;12.60;99.90;;;;;;5029979;28;20229;-88
2022/09/13 06:08:39;;;;;;;18.17;14.45;;;12.70;99.90;;;;;;5043043;28;20225;-85
2022/09/13 06:11:28;;;;;;;21.70;14.68;;;12.60;99.90;;;;;;5021759;28;20225;-80
2022/09/13 06:14:16;;;;;;;20.33;14.27;;;12.70;99.90;;;;;;5019434;28;20241;-78
2022/09/13 06:17:05;;;;;;;20.60;14.13;;;12.70;99.90;;;;;;5046720;28;20233;-85
2022/09/13 06:19:55;;;;;;;18.10;13.70;;;12.80;99.90;;;;;;5038160;28;20225;-80
2022/09/13 06:22:44;;;;;;;19.58;14.02;;;12.80;99.90;;;;;;5029178;28;20382;-86
2022/09/13 06:25:32;;;;;;;16.75;13.18;;;12.90;99.90;;;;;;5031038;28;20228;-83
2022/09/13 06:28:21;;;;;;;18.40;12.27;;;12.90;99.90;;;;;;5021252;28;20233;-84
2022/09/13 06:31:11;;;;;;;15.95;12.73;;;13.00;99.90;;;;;;5035875;28;20229;-79
2022/09/13 06:34:02;;;;;;;16.90;12.82;;;13.10;99.90;;;;;;5029171;28;20223;-78
2022/09/13 06:36:52;;;;;;;17.65;13.57;;;13.20;99.90;;;;;;5021628;28;20229;-83
2022/09/13 06:39:40;;;;;;;17.90;13.73;;;13.30;99.90;;;;;;5040151;28;20221;-81
2022/09/13 06:42:29;;;;;;;17.75;13.82;;;13.40;99.90;;;;;;5026896;28;20233;-80
2022/09/13 06:45:18;;;;;;;20.20;14.63;;;13.50;99.90;;;;;;5037644;28;20236;-80
2022/09/13 06:48:06;;;;;;;22.05;13.52;;;13.50;99.90;;;;;;5012976;28;20390;-83
2022/09/13 06:50:59;;;;;;;21.55;15.30;;;13.60;99.90;;;;;;5038106;28;20229;-82
2022/09/13 06:53:50;;;;;;;18.20;14.30;;;13.70;99.90;;;;;;5037325;28;20213;-82
2022/09/13 06:56:40;;;;;;;17.92;14.43;;;13.80;99.90;;;;;;5037386;28;20741;-83
2022/09/13 06:59:28;;;;;;;21.13;15.02;;;13.80;99.90;;;;;;5043595;28;20228;-84
2022/09/13 07:02:17;;;;;;;15.98;13.80;;;13.80;99.90;;;;;;5019191;28;20993;-83
2022/09/13 07:05:07;;;;;;;21.80;15.95;;;13.90;99.90;;;;;;5049097;28;20229;-83
2022/09/13 07:07:55;;;;;;;18.85;14.40;;;13.90;99.90;;;;;;5049030;28;20213;-84
2022/09/13 07:10:45;;;;;;;17.98;14.05;;;13.90;99.90;;;;;;5038897;28;20336;-84
2022/09/13 07:13:34;;;;;;;21.10;13.98;;;14.10;99.90;;;;;;5027414;28;20221;-83
2022/09/13 07:16:24;;;;;;;16.35;12.35;;;14.10;99.90;;;;;;5031568;28;20235;-82
2022/09/13 07:19:15;;;;;;;17.80;12.95;;;14.20;99.90;;;;;;5034081;28;20221;-83
2022/09/13 07:22:04;;;;;;;16.25;12.75;;;14.40;99.90;;;;;;5030801;28;20708;-82
2022/09/13 07:24:53;;;;;;;17.40;12.68;;;14.50;99.90;;;;;;5035624;28;20232;-81
2022/09/13 07:27:42;;;;;;;15.73;12.40;;;14.60;99.90;;;;;;5032165;28;20221;-81
2022/09/13 07:30:31;;;;;;;17.13;12.77;;;15.00;99.90;;;;;;5031336;28;20224;-81
2022/09/13 07:33:20;;;;;;;15.68;12.30;;;15.30;99.90;;;;;;5034703;28;20233;-81
2022/09/13 07:36:10;;;;;;;19.10;12.80;;;15.60;99.90;;;;;;5022500;28;20303;-79
2022/09/13 07:39:00;;;;;;;14.70;11.57;;;15.80;99.90;;;;;;5035660;28;20735;-78
2022/09/13 07:41:49;;;;;;;18.70;12.45;;;16.10;99.90;;;;;;5030837;28;21083;-80
2022/09/13 07:44:39;;;;;;;17.80;11.38;;;16.30;99.90;;;;;;5025933;28;20225;-80
2022/09/13 07:47:27;;;;;;;16.83;12.65;;;16.40;99.90;;;;;;5038431;28;20716;-78
2022/09/13 07:50:16;;;;;;;19.52;12.40;;;16.50;99.90;;;;;;5021276;28;20684;-87
2022/09/13 07:53:05;;;;;;;17.48;12.45;;;16.80;99.90;;;;;;5028547;28;20225;-91
2022/09/13 07:55:53;;;;;;;16.70;11.38;;;17.00;99.90;;;;;;5038192;28;20243;-85
2022/09/13 07:58:43;;;;;;;12.93;10.57;;;17.20;99.90;;;;;;5042368;28;20224;-87
2022/09/13 08:01:37;;;;;;;14.63;11.15;;;17.40;99.90;;;;;;5042598;28;20218;-95
2022/09/13 08:04:26;;;;;;;16.27;11.18;;;17.60;99.90;;;;;;5033845;28;20256;-87
2022/09/13 08:07:15;;;;;;;14.30;9.25;;;17.90;99.90;;;;;;5042067;28;20229;-88
2022/09/13 08:10:03;;;;;;;13.35;7.97;;;18.00;99.90;;;;;;5032281;28;20244;-87
2022/09/13 08:12:52;;;;;;;9.27;7.25;;;18.10;99.90;;;;;;5028929;28;20307;-85
2022/09/13 08:15:41;;;;;;;11.48;7.57;;;18.40;99.90;;;;;;5027075;28;20670;-85
2022/09/13 08:18:31;;;;;;;9.65;6.90;;;18.40;99.90;;;;;;5026933;28;20792;-86
2022/09/13 08:21:21;;;;;;;8.93;6.53;;;18.50;99.90;;;;;;5030344;28;20232;-89
2022/09/13 08:24:18;;;;;;;8.50;5.72;;;19.00;99.90;;;;;;5040053;28;20224;-85
2022/09/13 08:27:07;;;;;;;11.13;5.70;;;19.00;99.90;;;;;;5020938;28;20217;-86
2022/09/13 08:29:55;;;;;;;7.55;5.80;;;19.20;99.90;;;;;;5027255;28;20655;-83
2022/09/13 08:32:44;;;;;;;6.43;5.32;;;19.40;99.90;;;;;;5042132;28;20220;-89
2022/09/13 08:35:34;;;;;;;7.50;5.03;;;19.50;99.90;;;;;;5018462;28;20224;-89
2022/09/13 08:38:23;;;;;;;8.95;5.72;;;19.70;99.90;;;;;;5032783;28;20212;-85
2022/09/13 08:41:44;;;;;;;9.85;7.18;;;20.00;99.90;;;;;;5030647;28;20768;-86
2022/09/13 08:44:35;;;;;;;9.23;5.05;;;20.20;99.90;;;;;;5023475;28;20221;-90
2022/09/13 08:47:41;;;;;;;12.85;4.20;;;20.50;99.90;;;;;;5059242;28;20276;-87
2022/09/13 08:50:33;;;;;;;9.82;4.90;;;20.80;99.90;;;;;;5036178;28;20586;-81
2022/09/13 08:53:28;;;;;;;7.63;5.05;;;20.60;99.90;;;;;;5032402;28;20240;-81
2022/09/13 08:56:22;;;;;;;6.57;4.57;;;20.20;99.90;;;;;;5042581;28;20229;-87
2022/09/13 08:59:26;;;;;;;7.72;5.00;;;20.10;99.90;;;;;;5043097;28;20243;-87
2022/09/13 09:02:28;;;;;;;7.20;4.82;;;20.40;99.90;;;;;;5043250;28;20673;-82
2022/09/13 09:05:20;;;;;;;8.32;4.22;;;20.90;99.90;;;;;;5038403;28;20228;-85
2022/09/13 09:08:15;;;;;;;7.97;4.15;;;21.00;99.90;;;;;;5042667;28;20221;-81
2022/09/13 09:11:10;;;;;;;5.15;3.88;;;20.80;99.90;;;;;;5034385;28;20213;-82
2022/09/13 09:14:06;;;;;;;4.65;3.10;;;20.50;99.90;;;;;;5037103;28;21459;-81
2022/09/13 09:17:00;;;;;;;4.45;3.10;;;20.00;99.90;;;;;;5040568;28;20320;-83
2022/09/13 09:19:52;;;;;;;6.63;3.15;;;19.70;99.90;;;;;;5028959;28;20220;-84
2022/09/13 09:22:42;;;;;;;16.63;3.00;;;19.60;99.90;;;;;;5038284;28;20236;-84
2022/09/13 09:25:34;;;;;;;8.32;3.25;;;19.50;99.90;;;;;;5036440;28;20225;-83
2022/09/13 09:28:30;;;;;;;6.07;3.00;;;19.30;99.90;;;;;;5032482;28;20766;-84
2022/09/13 09:31:28;;;;;;;4.07;2.88;;;19.40;99.90;;;;;;5018041;28;20233;-84
2022/09/13 09:34:24;;;;;;;6.70;2.80;;;19.40;99.90;;;;;;5039937;28;20225;-84
2022/09/13 09:37:20;;;;;;;4.18;2.80;;;19.40;99.90;;;;;;5040137;28;20244;-81
2022/09/13 09:40:15;;;;;;;4.82;2.75;;;19.50;99.90;;;;;;5035100;28;20217;-80
2022/09/13 09:43:17;;;;;;;3.65;2.60;;;19.50;99.90;;;;;;5018614;28;20240;-86
2022/09/13 09:46:10;;;;;;;3.58;2.13;;;19.60;99.90;;;;;;5034370;28;20220;-81
2022/09/13 09:50:07;;;;;;;4.70;3.00;;;19.60;99.90;;;;;;5040387;28;20221;-90
2022/09/13 09:52:21;;;;;;;8.93;2.78;;;19.70;99.90;;;;;;5018496;28;20217;-80
2022/09/13 09:55:27;;;;;;;3.15;2.40;;;19.70;99.90;;;;;;5042018;28;20233;-88
2022/09/13 09:58:17;;;;;;;7.13;2.40;;;19.60;99.90;;;;;;5036805;28;20228;-80
2022/09/13 10:01:15;;;;;;;5.57;2.40;;;19.70;99.90;;;;;;5036685;28;20213;-82
2022/09/13 10:04:11;;;;;;;8.05;2.40;;;19.70;99.90;;;;;;5018856;28;20492;-81
2022/09/13 10:07:26;;;;;;;3.72;2.75;;;19.70;99.90;;;;;;5028254;28;20218;-86
2022/09/13 10:10:23;;;;;;;6.38;2.40;;;19.70;99.90;;;;;;5026063;28;20229;-83
2022/09/13 10:13:18;;;;;;;4.15;2.30;;;19.70;99.90;;;;;;5024124;28;20245;-82
2022/09/13 10:16:26;;;;;;;6.10;2.47;;;19.70;99.90;;;;;;5021191;28;20214;-80
2022/09/13 10:19:30;;;;;;;6.97;2.20;;;19.70;99.90;;;;;;5035318;28;20238;-82
2022/09/13 10:22:20;;;;;;;5.57;2.38;;;19.70;99.90;;;;;;5021707;28;20776;-83
2022/09/13 10:25:17;;;;;;;4.25;2.15;;;19.70;99.90;;;;;;5033452;28;20225;-80
2022/09/13 10:28:13;;;;;;;5.55;3.25;;;19.30;99.90;;;;;;5040429;28;20221;-80
2022/09/13 10:31:06;;;;;;;5.32;2.03;;;19.20;99.90;;;;;;5021866;28;20742;-82
2022/09/13 10:34:01;;;;;;;6.03;1.83;;;19.20;99.90;;;;;;5041037;28;20292;-83
2022/09/13 10:36:54;;;;;;;3.88;2.25;;;19.30;99.90;;;;;;5031069;28;20290;-83
2022/09/13 10:39:56;;;;;;;3.40;2.08;;;19.40;99.90;;;;;;5023553;28;20232;-83
2022/09/13 10:42:53;;;;;;;6.78;2.80;;;19.40;99.90;;;;;;5037299;28;20258;-84
2022/09/13 10:45:42;;;;;;;6.65;2.40;;;19.40;99.90;;;;;;5024723;28;20725;-83
2022/09/13 10:48:43;;;;;;;5.75;2.50;;;19.40;99.90;;;;;;5022506;28;20225;-84
2022/09/13 10:51:37;;;;;;;4.03;2.20;;;19.40;99.90;;;;;;5042323;28;20231;-80
2022/09/13 10:54:25;;;;;;;4.07;3.15;;;19.50;99.90;;;;;;5039506;28;20255;-87
2022/09/13 10:57:33;;;;;;;5.03;2.45;;;19.60;99.90;;;;;;5036993;28;20225;-82
2022/09/13 11:00:29;;;;;;;4.88;2.10;;;19.80;99.90;;;;;;5024209;28;20225;-81
2022/09/13 11:03:32;;;;;;;5.72;2.20;;;20.00;99.90;;;;;;5027449;28;20229;-80
2022/09/13 11:06:28;;;;;;;5.63;2.42;;;20.00;99.90;;;;;;5042394;28;20239;-83
2022/09/13 11:09:22;;;;;;;3.28;2.30;;;19.90;99.90;;;;;;5024115;28;20241;-83
2022/09/13 11:12:19;;;;;;;4.45;2.33;;;19.80;99.90;;;;;;5020435;28;20216;-82
2022/09/13 11:15:20;;;;;;;5.03;2.50;;;19.80;99.90;;;;;;5020421;28;20717;-82
2022/09/13 11:18:47;;;;;;;5.35;2.30;;;19.80;99.90;;;;;;5036474;28;20224;-82
2022/09/13 11:21:47;;;;;;;4.45;2.42;;;20.00;99.90;;;;;;5002957;28;20233;-83
2022/09/13 11:24:50;;;;;;;3.53;2.28;;;20.10;99.90;;;;;;5040128;28;20317;-84
2022/09/13 11:27:46;;;;;;;6.80;2.60;;;20.10;99.90;;;;;;5029668;28;20227;-85
2022/09/13 11:30:40;;;;;;;5.55;2.63;;;20.10;99.90;;;;;;5038841;28;20248;-81
2022/09/13 11:33:42;;;;;;;3.83;2.22;;;19.90;99.90;;;;;;5023479;28;20586;-84
2022/09/13 11:36:44;;;;;;;3.75;2.80;;;19.90;99.90;;;;;;5023644;28;20729;-85
2022/09/13 11:39:38;;;;;;;4.35;2.50;;;19.80;99.90;;;;;;5018066;28;20224;-84
2022/09/13 11:42:43;;;;;;;4.43;2.22;;;19.80;99.90;;;;;;5037492;28;20241;-85
2022/09/13 11:45:37;;;;;;;3.28;2.58;;;19.80;99.90;;;;;;5036814;28;20231;-84
2022/09/13 11:48:46;;;;;;;5.78;2.58;;;20.00;99.90;;;;;;5023021;28;20333;-84
2022/09/13 11:51:47;;;;;;;6.45;2.50;;;20.00;99.90;;;;;;5034336;28;20221;-84
2022/09/13 11:54:52;;;;;;;3.05;2.60;;;19.90;99.90;;;;;;5032238;28;20221;-83
2022/09/13 11:57:45;;;;;;;5.97;3.15;;;20.00;99.90;;;;;;5031163;28;20227;-84
2022/09/13 12:00:40;;;;;;;5.35;3.03;;;20.00;99.90;;;;;;5023794;28;20222;-83
2022/09/13 12:03:36;;;;;;;4.47;2.70;;;20.00;99.90;;;;;;5025565;28;20228;-85
2022/09/13 12:06:30;;;;;;;6.97;3.05;;;19.90;99.90;;;;;;5038542;28;20250;-85
2022/09/13 12:09:23;;;;;;;6.90;2.90;;;19.90;99.90;;;;;;5041975;28;20648;-83
2022/09/13 12:12:13;;;;;;;4.00;3.03;;;19.80;99.90;;;;;;5034210;28;20213;-84
2022/09/13 12:15:07;;;;;;;3.85;2.90;;;19.90;99.90;;;;;;5035968;28;20224;-83
2022/09/13 12:18:00;;;;;;;4.13;3.08;;;20.00;99.90;;;;;;5020252;28;20224;-84
2022/09/13 12:20:52;;;;;;;6.28;3.13;;;19.90;99.90;;;;;;5017849;28;20221;-82
2022/09/13 12:23:47;;;;;;;6.28;3.20;;;19.80;99.90;;;;;;5019875;28;20221;-83
2022/09/13 12:26:41;;;;;;;4.00;3.03;;;19.90;99.90;;;;;;5035302;28;20229;-83
2022/09/13 12:29:36;;;;;;;5.63;3.30;;;19.90;99.90;;;;;;5040216;28;20212;-81
2022/09/13 12:32:27;;;;;;;5.22;3.20;;;19.80;99.90;;;;;;5030369;28;20235;-84
2022/09/13 12:35:24;;;;;;;3.85;3.15;;;19.60;99.90;;;;;;5034138;28;20241;-84
2022/09/13 12:38:45;;;;;;;6.38;3.80;;;19.50;99.90;;;;;;5021691;28;20580;-84
2022/09/13 12:41:52;;;;;;;5.43;3.50;;;19.40;99.90;;;;;;5037949;28;20331;-82
2022/09/13 12:45:17;;;;;;;9.10;3.95;;;19.40;99.90;;;;;;5022190;28;20560;-83
2022/09/13 12:48:26;;;;;;;5.43;3.33;;;19.40;99.90;;;;;;5018232;28;20235;-84
2022/09/13 12:51:30;;;;;;;5.70;4.40;;;19.30;99.90;;;;;;5039661;28;20216;-82
2022/09/13 12:54:46;;;;;;;4.85;3.83;;;19.20;99.90;;;;;;5029688;28;20220;-82
2022/09/13 12:57:44;;;;;;;6.15;3.85;;;19.20;99.90;;;;;;5034118;28;20744;-81
2022/09/13 13:00:39;;;;;;;5.90;3.83;;;19.20;99.90;;;;;;5024707;28;20592;-82
2022/09/13 13:03:34;;;;;;;4.40;3.97;;;19.20;99.90;;;;;;5035412;28;20249;-81
2022/09/13 13:06:36;;;;;;;5.45;4.25;;;19.20;99.90;;;;;;5014979;28;20282;-81
2022/09/13 13:09:33;;;;;;;8.52;4.60;;;19.20;99.90;;;;;;5038076;28;20252;-82
2022/09/13 13:12:28;;;;;;;5.13;4.10;;;19.10;99.90;;;;;;5023985;28;20842;-82
2022/09/13 13:15:50;;;;;;;6.18;4.10;;;19.10;99.90;;;;;;5040453;28;20781;-80
2022/09/13 13:18:48;;;;;;;10.98;4.93;;;19.10;99.90;;;;;;5024253;28;20352;-82
2022/09/13 13:21:40;;;;;;;7.18;4.65;;;19.10;99.90;;;;;;5023693;28;20516;-82
2022/09/13 13:24:44;;;;;;;6.82;4.30;;;19.10;99.90;;;;;;5033978;28;20228;-82
2022/09/13 13:27:39;;;;;;;7.55;4.22;;;19.00;99.90;;;;;;5022870;28;20283;-82
2022/09/13 13:30:52;;;;;;;7.18;5.07;;;18.90;99.90;;;;;;5040938;28;20239;-82
2022/09/13 13:33:49;;;;;;;7.47;4.93;;;18.90;99.90;;;;;;5031359;28;20315;-82
2022/09/13 13:36:47;;;;;;;8.68;4.68;;;19.00;99.90;;;;;;5039124;28;20681;-82
2022/09/13 13:39:39;;;;;;;5.45;4.70;;;18.90;99.90;;;;;;5042356;28;20224;-82
2022/09/13 13:42:30;;;;;;;7.20;4.72;;;19.00;99.90;;;;;;5023461;28;20235;-82
2022/09/13 13:45:23;;;;;;;8.27;4.72;;;19.10;99.90;;;;;;5042137;28;20249;-83
2022/09/13 13:48:14;;;;;;;6.32;4.63;;;19.10;99.90;;;;;;5023901;28;20228;-82
2022/09/13 13:51:27;;;;;;;8.25;5.13;;;19.20;99.90;;;;;;5033767;28;20232;-82
2022/09/13 13:54:52;;;;;;;8.68;5.03;;;19.20;99.90;;;;;;5035058;28;20821;-81
2022/09/13 13:57:49;;;;;;;8.07;4.93;;;19.20;99.90;;;;;;5039364;28;20233;-82
2022/09/13 14:00:47;;;;;;;7.60;5.38;;;19.10;99.90;;;;;;5039982;28;20712;-81
2022/09/13 14:03:51;;;;;;;8.82;5.28;;;19.10;99.90;;;;;;5026541;28;20217;-84
2022/09/13 14:06:48;;;;;;;8.82;5.70;;;19.00;99.90;;;;;;5039563;28;20224;-84
2022/09/13 14:09:44;;;;;;;8.18;5.22;;;19.00;99.90;;;;;;5041122;28;20237;-84
2022/09/13 14:12:46;;;;;;;8.55;5.80;;;19.00;99.90;;;;;;5016919;28;20304;-83
2022/09/13 14:15:50;;;;;;;9.60;5.22;;;19.00;99.90;;;;;;5024050;28;20213;-84
2022/09/13 14:18:57;;;;;;;7.30;5.05;;;19.00;99.90;;;;;;5016953;28;20717;-86
2022/09/13 14:22:06;;;;;;;7.30;4.82;;;19.00;99.90;;;;;;5021017;28;20225;-85
2022/09/13 14:24:56;;;;;;;9.38;6.43;;;19.10;99.90;;;;;;5027559;28;20224;-84
2022/09/13 14:27:47;;;;;;;6.25;5.45;;;19.20;99.90;;;;;;5035345;28;20228;-86
2022/09/13 14:30:38;;;;;;;6.20;4.90;;;19.20;99.90;;;;;;5039065;28;20224;-84
2022/09/13 14:33:30;;;;;;;8.07;5.45;;;19.10;99.90;;;;;;5032121;28;20233;-83
2022/09/13 14:36:22;;;;;;;6.88;4.97;;;19.10;99.90;;;;;;5024028;28;20216;-83
2022/09/13 14:39:13;;;;;;;6.55;5.13;;;19.00;99.90;;;;;;5040470;28;20728;-83
2022/09/13 14:42:12;;;;;;;8.20;5.10;;;19.00;99.90;;;;;;5025096;28;20296;-82
2022/09/13 14:45:00;;;;;;;8.70;5.00;;;19.00;99.90;;;;;;5035492;28;20713;-81
2022/09/13 14:47:55;;;;;;;8.35;5.20;;;19.00;99.90;;;;;;5036032;28;20218;-83
2022/09/13 14:50:51;;;;;;;7.65;5.70;;;19.00;99.90;;;;;;5032450;28;20259;-84
2022/09/13 14:53:43;;;;;;;9.60;5.15;;;18.90;99.90;;;;;;5030186;28;20241;-83
2022/09/13 14:56:41;;;;;;;7.65;5.10;;;19.00;99.90;;;;;;5030066;28;20217;-84